Main page
METAR-TAF:

METAR-TAF

Airports :

Coulter Field

Bryan, Texas, United States

latitude: 30-42-56N, longitude: 096-19-53W, elevation: 367 ft

Current weather observation

The report was made 30 minutes ago, at 10:55 UTC
Wind 7 mph from the North
Temperature 46°F
Humidity 100%
Pressure 30.20 in. Hg
Visibility: 10 miles
Overcast at a height of 700 ft
rain

METAR: KCFD 201055Z AUTO 01006KT 10SM RA OVC007 08/08 A3020 RMK AO2 P0005 T00750075

Time: 04:25 (11:25 UTC)


TAF: missing

Weather observations and forecasts of more than 4000 airports (METAR and TAF reports).

The available stations are represented by yellow and red dots on the map.

Hover mouse over dot to see the name of the station.

Then click to see weather observations and forecasts.

To change the map : click on the green buttons with a black cross to zoom in, on the green button with a dash to zoom out, or on the green arrows for adjacent maps.


METAR-TAF: